Impacts TAF Board INFO
FOR SITUATIONAL AWARENESS. NOT TO BE USED FOR FLIGHT PLANNING PURPOSES.
IDs:

KLAX - Los Angeles Intl, CA, US

Issued at 2223 UTC 25 May 2018
Updated at 2229 UTC 25 May 2018
Potential Impact None Slight Moderate High
Time2153Z 25/23Z 26/00Z 26/01Z 26/02Z 26/03Z 26/04Z 26/05Z 26/06Z 26/07Z 26/08Z 26/09Z 26/10Z 26/11Z>>
Type OBS PRVL PRVL PRVL PRVL PRVL PRVL PRVL PRVL PRVL PRVL PRVL PRVL PRVL
VIS 10 >6 >6 >6 >6 >6 >6 >6 >6 >6 >6 >6 >6 >6
CIG -- -- -- -- -- -- -- 25 25 25 25 25 25 25
Cover SCT SCT SCT SCT SCT SCT SCT BKN BKN BKN BKN BKN BKN BKN
FltCat VFR VFR VFR VFR VFR VFR VFR MVFR MVFR MVFR MVFR MVFR MVFR MVFR
WX -- -- -- -- -- -- -- -- -- -- -- -- -- --
WDir 250 260 260 260 260 260 260 260 260 260 260 260 260 300
WSpd 15 15 15 15 15 15 15 10 10 10 10 10 10 6
WGst -- 20 20 20 20 20 20 -- -- -- -- -- -- --

Raw TAF
KLAX 252223Z 2522/2624 26015G20KT P6SM FEW025 SCT045
  FM260500 26010KT P6SM BKN025
  FM261100 30006KT P6SM BKN025
  FM261800 26009KT P6SM BKN035
  FM262100 26014G20KT P6SM BKN040


Raw METAR
KLAX 252153Z 25015KT 10SM FEW026 SCT045 19/12 A3010 RMK AO2 SLP192 T01940117
KLAX 252053Z 26013G18KT 10SM FEW025 SCT045 19/11 A3012 RMK AO2 SLP199 T01890106 58004
KLAX 251953Z 26016KT 10SM FEW025 FEW040 SCT050 19/11 A3013 RMK AO2 SLP201 T01940111

METAR Board
Radar Display
Forecast Discussion

FOR SITUATIONAL AWARENESS. NOT TO BE USED FOR FLIGHT PLANNING PURPOSES.